createdAt,value
2023-04-27T00:00:15.346Z,19.67
2023-04-27T00:02:45.440Z,19.67
2023-04-27T00:05:14.468Z,19.68
2023-04-27T00:07:43.176Z,19.68
2023-04-27T00:10:12.126Z,19.68
2023-04-27T00:12:41.968Z,19.69
2023-04-27T00:15:11.676Z,19.69
2023-04-27T00:17:40.209Z,19.67
2023-04-27T00:20:11.979Z,19.68
2023-04-27T00:22:40.892Z,19.66
2023-04-27T00:25:09.950Z,19.67
2023-04-27T00:27:38.377Z,19.66
2023-04-27T00:30:08.103Z,19.66
2023-04-27T00:32:36.621Z,19.67
2023-04-27T00:35:05.341Z,19.67
2023-04-27T00:37:35.146Z,19.65
2023-04-27T00:40:06.612Z,19.66
2023-04-27T00:42:35.575Z,19.65
2023-04-27T00:45:05.360Z,19.66
2023-04-27T00:47:34.368Z,19.65
2023-04-27T00:50:08.404Z,19.65
2023-04-27T00:52:39.415Z,19.65
2023-04-27T00:55:09.620Z,19.65
2023-04-27T00:57:38.982Z,19.65
2023-04-27T01:00:10.959Z,19.64
2023-04-27T01:02:40.348Z,19.64
2023-04-27T01:05:09.841Z,19.64
2023-04-27T01:07:40.317Z,19.64
2023-04-27T01:10:09.875Z,19.64
2023-04-27T01:12:38.427Z,19.66
2023-04-27T01:15:08.480Z,19.65
2023-04-27T01:17:37.310Z,19.65
2023-04-27T01:20:10.773Z,19.65
2023-04-27T01:22:40.731Z,19.65
2023-04-27T01:25:12.611Z,19.66
2023-04-27T01:27:41.037Z,19.66
2023-04-27T01:30:09.782Z,19.66
2023-04-27T01:32:38.733Z,19.65
2023-04-27T01:35:08.134Z,19.66
2023-04-27T01:37:36.892Z,19.66
2023-04-27T01:40:07.676Z,19.66
2023-04-27T01:42:38.242Z,19.65
2023-04-27T01:45:12.588Z,19.65
2023-04-27T01:47:41.155Z,19.66
2023-04-27T01:50:10.412Z,19.66
2023-04-27T01:52:41.008Z,19.66
2023-04-27T01:55:11.107Z,19.66
2023-04-27T01:57:41.029Z,19.66
2023-04-27T02:00:10.612Z,19.66
2023-04-27T02:02:53.663Z,19.66
2023-04-27T02:05:22.475Z,19.66
2023-04-27T02:07:51.244Z,19.67
2023-04-27T02:10:22.092Z,19.66
2023-04-27T02:12:51.964Z,19.65
2023-04-27T02:15:20.450Z,19.66
2023-04-27T02:17:48.983Z,19.66
2023-04-27T02:20:17.574Z,19.66
2023-04-27T02:22:46.079Z,19.66
2023-04-27T02:25:15.431Z,19.66
2023-04-27T02:27:44.501Z,19.67
2023-04-27T02:30:15.714Z,19.65
2023-04-27T02:32:44.919Z,19.65
2023-04-27T02:35:14.540Z,19.65
2023-04-27T02:37:42.937Z,19.65
2023-04-27T02:40:11.884Z,19.65
2023-04-27T02:42:40.463Z,19.66
2023-04-27T02:45:09.626Z,19.66
2023-04-27T02:47:39.547Z,19.65
2023-04-27T02:50:08.988Z,19.65
2023-04-27T02:52:38.011Z,19.65
2023-04-27T02:55:07.232Z,19.65
2023-04-27T02:57:35.728Z,19.65
2023-04-27T03:00:05.886Z,19.64
2023-04-27T03:02:37.457Z,19.63
2023-04-27T03:05:08.316Z,19.64
2023-04-27T03:07:36.793Z,19.64
2023-04-27T03:10:06.028Z,19.65
2023-04-27T03:12:34.657Z,19.64
2023-04-27T03:15:03.246Z,19.64
2023-04-27T03:17:32.171Z,19.63
2023-04-27T03:20:00.712Z,19.63
2023-04-27T03:22:30.618Z,19.63
2023-04-27T03:24:58.996Z,19.64
2023-04-27T03:27:27.344Z,19.63
2023-04-27T03:29:55.867Z,19.63
2023-04-27T03:32:24.369Z,19.62
2023-04-27T03:34:53.288Z,19.63
2023-04-27T03:37:21.809Z,19.62
2023-04-27T03:39:51.622Z,19.62
2023-04-27T03:42:20.145Z,19.63
2023-04-27T03:44:48.538Z,19.63
2023-04-27T03:47:16.941Z,19.63
2023-04-27T03:49:46.185Z,19.63
2023-04-27T03:52:14.749Z,19.64
2023-04-27T03:54:43.265Z,19.65
2023-04-27T03:57:14.499Z,19.64
2023-04-27T03:59:42.969Z,19.65
2023-04-27T04:02:11.720Z,19.65
2023-04-27T04:04:41.083Z,19.65
2023-04-27T04:07:09.687Z,19.66
2023-04-27T04:09:38.150Z,19.65
2023-04-27T04:12:07.304Z,19.65
2023-04-27T04:14:37.130Z,19.65
2023-04-27T04:17:05.615Z,19.65
2023-04-27T04:19:35.128Z,19.62
2023-04-27T04:22:03.629Z,19.63
2023-04-27T04:24:32.265Z,19.63
2023-04-27T04:27:01.201Z,19.62
2023-04-27T04:29:29.618Z,19.61
2023-04-27T04:31:59.552Z,19.61
2023-04-27T04:34:29.204Z,19.61
2023-04-27T04:36:57.820Z,19.60
2023-04-27T04:39:26.971Z,19.61
2023-04-27T04:41:55.397Z,19.60
2023-04-27T04:44:26.105Z,19.60
2023-04-27T04:46:55.528Z,19.60
2023-04-27T04:49:28.978Z,19.60
2023-04-27T04:51:57.506Z,19.60
2023-04-27T04:54:25.923Z,19.60
2023-04-27T04:56:58.295Z,19.60
2023-04-27T04:59:27.592Z,19.61
2023-04-27T05:01:56.177Z,19.60
2023-04-27T05:04:24.988Z,19.60
2023-04-27T05:06:54.819Z,19.60
2023-04-27T05:09:23.749Z,19.59
2023-04-27T05:11:52.143Z,19.60
2023-04-27T05:14:20.839Z,19.63
2023-04-27T05:16:51.553Z,19.64
2023-04-27T05:19:20.740Z,19.66
2023-04-27T05:21:49.254Z,19.65
2023-04-27T05:24:19.097Z,19.65
2023-04-27T05:26:47.482Z,19.65
2023-04-27T05:29:16.492Z,19.69
2023-04-27T05:31:45.165Z,19.72
2023-04-27T05:34:13.675Z,19.76
2023-04-27T05:36:42.171Z,19.78
2023-04-27T05:39:10.653Z,19.80
2023-04-27T05:41:40.625Z,19.82
2023-04-27T05:44:09.092Z,19.84
2023-04-27T05:46:38.706Z,19.84
2023-04-27T05:49:07.608Z,19.84
2023-04-27T05:51:36.994Z,19.86
2023-04-27T05:54:05.586Z,19.89
2023-04-27T05:56:33.986Z,19.91
2023-04-27T05:59:03.980Z,19.91
2023-04-27T06:01:32.632Z,19.91
2023-04-27T06:04:01.724Z,20.16
2023-04-27T06:06:33.128Z,20.41
2023-04-27T06:09:01.525Z,20.57
2023-04-27T06:11:30.286Z,20.81
2023-04-27T06:13:58.713Z,21.10
2023-04-27T06:16:28.567Z,21.36
2023-04-27T06:18:57.187Z,21.59
2023-04-27T06:21:26.527Z,21.68
2023-04-27T06:23:54.905Z,21.75
2023-04-27T06:26:23.393Z,21.81
2023-04-27T06:28:51.777Z,21.86
2023-04-27T06:31:20.383Z,21.89
2023-04-27T06:33:50.178Z,21.93
2023-04-27T06:36:19.566Z,21.97
2023-04-27T06:38:48.026Z,22.02
2023-04-27T06:41:16.410Z,22.08
2023-04-27T06:43:44.813Z,22.11
2023-04-27T06:46:13.357Z,22.12
2023-04-27T06:48:42.066Z,22.14
2023-04-27T06:51:12.785Z,22.18
2023-04-27T06:53:41.271Z,22.22
2023-04-27T06:56:12.869Z,22.24
2023-04-27T06:58:41.342Z,22.22
2023-04-27T07:01:09.869Z,22.23
2023-04-27T07:03:38.466Z,22.26
2023-04-27T07:06:07.261Z,22.30
2023-04-27T07:08:37.655Z,22.31
2023-04-27T07:11:06.229Z,22.32
2023-04-27T07:13:34.695Z,22.31
2023-04-27T07:16:03.142Z,22.31
2023-04-27T07:18:31.749Z,22.38
2023-04-27T07:21:00.317Z,22.41
2023-04-27T07:23:28.793Z,22.48
2023-04-27T07:25:58.817Z,22.49
2023-04-27T07:28:29.583Z,22.51
2023-04-27T07:30:58.209Z,22.50
2023-04-27T07:33:26.943Z,22.49
2023-04-27T07:35:56.300Z,22.49
2023-04-27T07:38:25.498Z,22.50
2023-04-27T07:40:54.576Z,22.52
2023-04-27T07:43:25.655Z,22.55
2023-04-27T07:45:54.424Z,22.52
2023-04-27T07:48:23.061Z,22.45
2023-04-27T07:50:51.765Z,22.45
2023-04-27T07:53:20.228Z,22.50
2023-04-27T07:55:48.627Z,22.52
2023-04-27T07:58:17.302Z,22.52
2023-04-27T08:00:47.226Z,22.52
2023-04-27T08:03:15.822Z,22.50
2023-04-27T08:05:44.752Z,22.49
2023-04-27T08:08:13.716Z,22.49
2023-04-27T08:10:42.924Z,22.48
2023-04-27T08:13:11.400Z,22.49
2023-04-27T08:15:39.997Z,22.47
2023-04-27T08:18:09.912Z,22.46
2023-04-27T08:20:38.468Z,22.45
2023-04-27T08:23:09.900Z,22.49
2023-04-27T08:25:38.321Z,22.52
2023-04-27T08:28:06.815Z,22.59
2023-04-27T08:30:35.550Z,22.62
2023-04-27T08:33:04.131Z,22.55
2023-04-27T08:35:34.140Z,22.48
2023-04-27T08:38:02.676Z,22.44
2023-04-27T08:40:31.130Z,22.39
2023-04-27T08:43:00.629Z,22.32
2023-04-27T08:45:29.775Z,22.26
2023-04-27T08:47:58.318Z,22.21
2023-04-27T08:50:27.167Z,22.15
2023-04-27T08:52:56.953Z,22.10
2023-04-27T08:55:25.521Z,22.05
2023-04-27T08:57:57.956Z,21.98
2023-04-27T09:00:27.728Z,21.93
2023-04-27T09:02:56.265Z,21.87
2023-04-27T09:05:24.869Z,21.82
2023-04-27T09:08:02.172Z,21.77
2023-04-27T09:10:30.862Z,21.74
2023-04-27T09:13:01.364Z,21.70
2023-04-27T09:15:29.948Z,21.67
2023-04-27T09:17:59.135Z,21.62
2023-04-27T09:20:28.581Z,21.59
2023-04-27T09:22:58.824Z,21.56
2023-04-27T09:25:28.661Z,21.53
2023-04-27T09:27:58.174Z,21.51
2023-04-27T09:30:27.234Z,21.50
2023-04-27T09:32:57.692Z,21.47
2023-04-27T09:35:27.611Z,21.46
2023-04-27T09:37:58.422Z,21.44
2023-04-27T09:40:29.822Z,21.42
2023-04-27T09:43:00.970Z,21.38
2023-04-27T09:45:29.577Z,21.35
2023-04-27T09:47:59.601Z,21.33
2023-04-27T09:50:28.065Z,21.30
2023-04-27T09:52:58.166Z,21.26
2023-04-27T09:55:31.992Z,21.23
2023-04-27T09:58:15.506Z,21.19
2023-04-27T10:00:53.506Z,21.15
2023-04-27T10:03:27.857Z,21.13
2023-04-27T10:06:33.928Z,21.10
2023-04-27T10:09:06.187Z,21.06
2023-04-27T10:11:40.034Z,21.04
2023-04-27T10:14:11.038Z,21.02
2023-04-27T10:16:47.527Z,20.99
2023-04-27T10:19:16.553Z,20.96
2023-04-27T10:21:56.939Z,20.94
2023-04-27T10:24:38.233Z,20.93
2023-04-27T10:27:08.086Z,20.90
2023-04-27T10:29:38.566Z,20.89
2023-04-27T10:32:08.950Z,20.86
2023-04-27T10:34:38.615Z,20.84
2023-04-27T10:37:08.526Z,20.82
2023-04-27T10:39:47.011Z,20.80
2023-04-27T10:42:28.193Z,20.79
2023-04-27T10:44:58.396Z,20.77
2023-04-27T10:47:37.895Z,20.74
2023-04-27T10:50:08.493Z,20.73
2023-04-27T10:52:37.048Z,20.71
2023-04-27T10:55:17.843Z,20.70
2023-04-27T10:57:50.802Z,20.71
2023-04-27T11:00:30.452Z,20.73
2023-04-27T11:03:11.255Z,20.74
2023-04-27T11:05:39.790Z,20.75
2023-04-27T11:08:09.488Z,20.76
2023-04-27T11:10:41.528Z,20.75
2023-04-27T11:13:11.747Z,20.74
2023-04-27T11:15:45.282Z,20.69
2023-04-27T11:18:13.777Z,20.70
2023-04-27T11:20:42.335Z,20.68
2023-04-27T11:23:12.033Z,20.68
2023-04-27T11:25:41.792Z,20.69
2023-04-27T11:28:18.383Z,20.69
2023-04-27T11:30:47.624Z,20.70
2023-04-27T11:33:16.236Z,20.71
2023-04-27T11:35:44.633Z,20.70
2023-04-27T11:38:20.094Z,20.70
2023-04-27T11:41:00.591Z,20.70
2023-04-27T11:43:29.631Z,20.70
2023-04-27T11:45:58.784Z,20.70
2023-04-27T11:48:29.319Z,20.70
2023-04-27T11:51:01.266Z,20.71
2023-04-27T11:53:32.076Z,20.71
2023-04-27T11:56:03.338Z,20.71
2023-04-27T11:58:34.527Z,20.68
2023-04-27T12:01:03.277Z,20.70
2023-04-27T12:03:32.273Z,20.69
2023-04-27T12:06:16.226Z,20.69
2023-04-27T12:08:49.484Z,20.69
2023-04-27T12:11:19.420Z,20.69
2023-04-27T12:13:48.223Z,20.70
2023-04-27T12:16:16.698Z,20.69
2023-04-27T12:18:45.190Z,20.68
2023-04-27T12:21:14.298Z,20.65
2023-04-27T12:23:43.187Z,20.65
2023-04-27T12:26:15.176Z,20.64
2023-04-27T12:28:45.321Z,20.64
2023-04-27T12:31:16.511Z,20.61
2023-04-27T12:33:45.332Z,20.60
2023-04-27T12:36:13.799Z,20.60
2023-04-27T12:38:42.349Z,20.58
2023-04-27T12:41:10.895Z,20.57
2023-04-27T12:43:41.084Z,20.56
2023-04-27T12:46:11.618Z,20.55
2023-04-27T12:48:41.156Z,20.55
2023-04-27T12:51:09.674Z,20.54
2023-04-27T12:53:38.140Z,20.53
2023-04-27T12:56:07.302Z,20.53
2023-04-27T12:58:35.936Z,20.52
2023-04-27T13:01:04.523Z,20.51
2023-04-27T13:03:34.378Z,20.51
2023-04-27T13:06:02.909Z,20.50
2023-04-27T13:08:31.347Z,20.50
2023-04-27T13:10:59.823Z,20.50
2023-04-27T13:13:28.267Z,20.49
2023-04-27T13:15:58.348Z,20.48
2023-04-27T13:18:27.076Z,20.48
2023-04-27T13:20:56.812Z,20.48
2023-04-27T13:23:26.471Z,20.45
2023-04-27T13:25:55.264Z,20.47
2023-04-27T13:28:23.888Z,20.45
2023-04-27T13:30:52.706Z,20.46
2023-04-27T13:33:23.694Z,20.48
2023-04-27T13:35:52.549Z,20.49
2023-04-27T13:38:22.316Z,20.50
2023-04-27T13:40:50.936Z,20.51
2023-04-27T13:43:19.385Z,20.52
2023-04-27T13:45:49.513Z,20.54
2023-04-27T13:48:17.997Z,20.54
2023-04-27T13:50:46.732Z,20.54
2023-04-27T13:53:16.670Z,20.55
2023-04-27T13:55:46.488Z,20.56
2023-04-27T13:58:14.922Z,20.57
2023-04-27T14:00:43.331Z,20.57
2023-04-27T14:03:11.956Z,20.57
2023-04-27T14:05:40.591Z,20.58
2023-04-27T14:08:09.011Z,20.59
2023-04-27T14:10:37.921Z,20.57
2023-04-27T14:13:07.806Z,20.58
2023-04-27T14:15:37.226Z,20.58
2023-04-27T14:18:07.510Z,20.59
2023-04-27T14:20:36.312Z,20.58
2023-04-27T14:23:06.936Z,20.60
2023-04-27T14:25:35.599Z,20.61
2023-04-27T14:28:06.158Z,20.62
2023-04-27T14:30:36.080Z,20.61
2023-04-27T14:33:04.875Z,20.61
2023-04-27T14:35:35.558Z,20.61
2023-04-27T14:38:04.389Z,20.61
2023-04-27T14:40:33.553Z,20.61
2023-04-27T14:43:02.025Z,20.61
2023-04-27T14:45:39.761Z,20.61
2023-04-27T14:48:17.809Z,20.61
2023-04-27T14:50:46.853Z,20.60
2023-04-27T14:53:15.327Z,20.60
2023-04-27T14:55:45.815Z,20.61
2023-04-27T14:58:14.588Z,20.61
2023-04-27T15:00:43.402Z,20.61
2023-04-27T15:03:12.174Z,20.62
2023-04-27T15:05:42.133Z,20.62
2023-04-27T15:08:11.557Z,20.61
2023-04-27T15:10:40.038Z,20.62
2023-04-27T15:13:08.478Z,20.62
2023-04-27T15:15:37.087Z,20.61
2023-04-27T15:18:06.052Z,20.62
2023-04-27T15:20:34.533Z,20.61
2023-04-27T15:23:04.651Z,20.61
2023-04-27T15:25:33.114Z,20.60
2023-04-27T15:28:03.190Z,20.59
2023-04-27T15:30:31.592Z,20.59
2023-04-27T15:33:00.199Z,20.57
2023-04-27T15:35:28.756Z,20.57
2023-04-27T15:37:57.160Z,20.57
2023-04-27T15:40:27.106Z,20.57
2023-04-27T15:42:55.628Z,20.57
2023-04-27T15:45:24.294Z,20.57
2023-04-27T15:47:52.988Z,20.59
2023-04-27T15:50:21.615Z,20.59
2023-04-27T15:52:50.647Z,20.61
2023-04-27T15:55:19.533Z,20.62
2023-04-27T15:57:50.213Z,20.63
2023-04-27T16:00:21.999Z,20.63
2023-04-27T16:02:50.921Z,20.62
2023-04-27T16:05:19.651Z,20.61
2023-04-27T16:07:48.205Z,20.62
2023-04-27T16:10:16.701Z,20.63
2023-04-27T16:12:45.147Z,20.63
2023-04-27T16:15:15.296Z,20.64
2023-04-27T16:17:43.972Z,20.65
2023-04-27T16:20:12.649Z,20.65
2023-04-27T16:22:41.542Z,20.65
2023-04-27T16:25:11.331Z,20.66
2023-04-27T16:27:40.660Z,20.65
2023-04-27T16:30:10.054Z,20.66
2023-04-27T16:32:40.207Z,20.66
2023-04-27T16:35:09.557Z,20.66
2023-04-27T16:37:38.251Z,20.67
2023-04-27T16:40:08.554Z,20.67
2023-04-27T16:42:37.104Z,20.66
2023-04-27T16:45:09.148Z,20.64
2023-04-27T16:47:41.791Z,20.64
2023-04-27T16:50:11.381Z,20.65
2023-04-27T16:52:39.827Z,20.66
2023-04-27T16:55:09.165Z,20.66
2023-04-27T16:57:37.894Z,20.66
2023-04-27T17:00:09.563Z,20.67
2023-04-27T17:02:39.402Z,20.66
2023-04-27T17:05:10.840Z,20.66
2023-04-27T17:07:39.370Z,20.63
2023-04-27T17:10:09.505Z,20.62
2023-04-27T17:12:38.229Z,20.60
2023-04-27T17:15:08.197Z,20.60
2023-04-27T17:17:36.963Z,20.58
2023-04-27T17:20:07.338Z,20.56
2023-04-27T17:22:37.135Z,20.54
2023-04-27T17:25:06.527Z,20.52
2023-04-27T17:27:34.933Z,20.51
2023-04-27T17:30:03.444Z,20.50
2023-04-27T17:32:32.484Z,20.49
2023-04-27T17:35:00.918Z,20.48
2023-04-27T17:37:29.353Z,20.46
2023-04-27T17:39:59.861Z,20.48
2023-04-27T17:42:28.418Z,20.45
2023-04-27T17:44:56.941Z,20.45
2023-04-27T17:47:25.749Z,20.44
2023-04-27T17:49:54.191Z,20.44
2023-04-27T17:52:22.615Z,20.42
2023-04-27T17:54:51.133Z,20.41
2023-04-27T17:57:21.513Z,20.41
2023-04-27T17:59:50.823Z,20.39
2023-04-27T18:02:19.595Z,20.38
2023-04-27T18:04:48.086Z,20.38
2023-04-27T18:07:18.445Z,20.37
2023-04-27T18:09:46.923Z,20.37
2023-04-27T18:12:15.344Z,20.36
2023-04-27T18:14:45.045Z,20.35
2023-04-27T18:17:13.522Z,20.35
2023-04-27T18:19:42.023Z,20.35
2023-04-27T18:22:10.553Z,20.34
2023-04-27T18:24:39.108Z,20.33
2023-04-27T18:27:07.511Z,20.34
2023-04-27T18:29:35.852Z,20.32
2023-04-27T18:32:06.340Z,20.32
2023-04-27T18:34:35.096Z,20.32
2023-04-27T18:37:03.529Z,20.30
2023-04-27T18:39:31.941Z,20.30
2023-04-27T18:42:00.529Z,20.30
2023-04-27T18:44:28.948Z,20.29
2023-04-27T18:46:57.344Z,20.29
2023-04-27T18:49:27.240Z,20.28
2023-04-27T18:51:55.661Z,20.29
2023-04-27T18:54:24.038Z,20.28
2023-04-27T18:56:53.592Z,20.29
2023-04-27T18:59:22.046Z,20.27
2023-04-27T19:01:50.548Z,20.27
2023-04-27T19:04:19.262Z,20.27
2023-04-27T19:06:49.981Z,20.27
2023-04-27T19:09:19.160Z,20.26
2023-04-27T19:11:56.155Z,20.26
2023-04-27T19:14:31.145Z,20.25
2023-04-27T19:16:59.644Z,20.26
2023-04-27T19:19:28.131Z,20.24
2023-04-27T19:21:58.296Z,20.25
2023-04-27T19:24:27.380Z,20.24
2023-04-27T19:26:55.845Z,20.23
2023-04-27T19:29:26.528Z,20.24
2023-04-27T19:31:55.249Z,20.24
2023-04-27T19:34:23.773Z,20.25
2023-04-27T19:36:52.214Z,20.25
2023-04-27T19:39:21.966Z,20.24
2023-04-27T19:41:50.520Z,20.24
2023-04-27T19:44:18.990Z,20.23
2023-04-27T19:46:47.508Z,20.24
2023-04-27T19:49:16.085Z,20.24
2023-04-27T19:51:44.552Z,20.23
2023-04-27T19:54:13.075Z,20.23
2023-04-27T19:56:42.981Z,20.23
2023-04-27T19:59:11.604Z,20.24
2023-04-27T20:01:40.160Z,20.22
2023-04-27T20:04:08.868Z,20.23
2023-04-27T20:06:37.426Z,20.23
2023-04-27T20:09:05.913Z,20.22
2023-04-27T20:11:34.386Z,20.20
2023-04-27T20:14:04.133Z,20.18
2023-04-27T20:16:32.639Z,20.18
2023-04-27T20:19:01.030Z,20.18
2023-04-27T20:21:29.513Z,20.18
2023-04-27T20:23:57.996Z,20.19
2023-04-27T20:26:26.444Z,20.21
2023-04-27T20:28:54.932Z,20.19
2023-04-27T20:31:24.756Z,20.19
2023-04-27T20:33:53.724Z,20.19
2023-04-27T20:36:23.003Z,20.21
2023-04-27T20:38:51.554Z,20.20
2023-04-27T20:41:21.249Z,20.20
2023-04-27T20:43:52.428Z,20.21
2023-04-27T20:46:21.132Z,20.20
2023-04-27T20:48:51.024Z,20.21
2023-04-27T20:51:20.037Z,20.19
2023-04-27T20:53:48.514Z,20.19
2023-04-27T20:56:17.036Z,20.19
2023-04-27T20:58:45.446Z,20.20
2023-04-27T21:01:13.951Z,20.18
2023-04-27T21:03:42.673Z,20.18
2023-04-27T21:06:12.553Z,20.19
2023-04-27T21:08:41.776Z,20.17
2023-04-27T21:11:11.829Z,20.18
2023-04-27T21:13:40.281Z,20.18
2023-04-27T21:16:08.801Z,20.18
2023-04-27T21:18:37.372Z,20.18
2023-04-27T21:21:06.415Z,20.17
2023-04-27T21:23:36.600Z,20.17
2023-04-27T21:26:05.254Z,20.16
2023-04-27T21:28:33.652Z,20.18
2023-04-27T21:31:02.060Z,20.17
2023-04-27T21:33:32.021Z,20.17
2023-04-27T21:36:00.693Z,20.16
2023-04-27T21:38:29.132Z,20.16
2023-04-27T21:40:59.836Z,20.15
2023-04-27T21:43:28.472Z,20.17
2023-04-27T21:45:56.980Z,20.16
2023-04-27T21:48:26.078Z,20.16
2023-04-27T21:50:54.592Z,20.16
2023-04-27T21:53:23.143Z,20.17
2023-04-27T21:55:51.682Z,20.19
2023-04-27T21:58:21.468Z,20.21
2023-04-27T22:00:49.910Z,20.24
2023-04-27T22:03:18.667Z,20.26
2023-04-27T22:05:49.092Z,20.30
2023-04-27T22:08:18.198Z,20.32
2023-04-27T22:10:47.206Z,20.35
2023-04-27T22:13:18.895Z,20.37
2023-04-27T22:15:49.984Z,20.39
2023-04-27T22:18:18.649Z,20.39
2023-04-27T22:20:47.280Z,20.41
2023-04-27T22:23:15.858Z,20.42
2023-04-27T22:25:44.436Z,20.42
2023-04-27T22:28:13.069Z,20.42
2023-04-27T22:30:42.059Z,20.42
2023-04-27T22:33:11.950Z,20.39
2023-04-27T22:35:40.501Z,20.38
2023-04-27T22:38:09.040Z,20.37
2023-04-27T22:40:38.007Z,20.34
2023-04-27T22:43:06.522Z,20.31
2023-04-27T22:45:36.137Z,20.30
2023-04-27T22:48:07.065Z,20.29
2023-04-27T22:50:37.232Z,20.28
2023-04-27T22:53:05.678Z,20.27
2023-04-27T22:55:34.041Z,20.26
2023-04-27T22:58:02.474Z,20.25
2023-04-27T23:00:31.254Z,20.23
2023-04-27T23:02:59.813Z,20.21
2023-04-27T23:05:28.954Z,20.21
2023-04-27T23:07:59.834Z,20.20
2023-04-27T23:10:31.013Z,20.20
2023-04-27T23:13:01.397Z,20.18
2023-04-27T23:15:29.757Z,20.17
2023-04-27T23:17:58.133Z,20.17
2023-04-27T23:20:28.893Z,20.16
2023-04-27T23:22:58.977Z,20.16
2023-04-27T23:25:27.509Z,20.14
2023-04-27T23:27:55.946Z,20.12
2023-04-27T23:30:24.321Z,20.12
2023-04-27T23:32:53.226Z,20.11
2023-04-27T23:35:22.008Z,20.10
2023-04-27T23:37:50.355Z,20.09
2023-04-27T23:40:20.208Z,20.09
2023-04-27T23:42:50.844Z,20.08
2023-04-27T23:45:20.219Z,20.08
2023-04-27T23:47:48.679Z,20.06
2023-04-27T23:50:17.156Z,20.07
2023-04-27T23:52:45.601Z,20.06
2023-04-27T23:55:14.083Z,20.05
2023-04-27T23:57:44.303Z,20.05
